Terminal Aerodrome Forecast
Issued by NWS

Home | Current Version | Previous Version | Text Only | Print | Product List | Glossary Off
Versions: 1 2 3 4 5 6 7 8 9 10 11 12 13 14 15 16 17 18 19 20 21

000
FTUS43 KTOP 271120
TAFMHK
TAF
KMHK 271120Z 2712/2812 26004KT P6SM FEW200
     FM272100 15008KT P6SM OVC080
     FM280000 15008KT P6SM VCSH OVC060
     FM280300 11006KT P6SM -SHRA OVC030
     FM280500 10008KT 3SM -SHRA BR OVC008=

USA.gov is the U.S. government's official web portal to all federal, state and local government web resources and services.